Time;durP1;ratioP1;P1;durP2;ratioP2;P2;SDS_P1;SDS_P2;PMS_P1;PMS_P2;Temp;Humidity;BMP_temperature;BMP_pressure;BME280_temperature;BME280_humidity;BME280_pressure;Samples;Min_cycle;Max_cycle;Signal;HPM_P1;HPM_P2
2022/06/08 00:02:01;;;;;;;;;;;9.70;99.90;;;;;;4788078;29;20054;-68
2022/06/08 00:04:27;;;;;;;6.22;5.40;;;9.70;99.90;;;;;;4789633;29;19974;-67
2022/06/08 00:06:53;;;;;;;7.70;6.13;;;9.60;99.90;;;;;;4789080;29;20489;-67
2022/06/08 00:09:19;;;;;;;7.95;5.28;;;9.60;99.90;;;;;;4789257;29;20397;-67
2022/06/08 00:11:45;;;;;;;11.48;6.55;;;9.70;99.90;;;;;;4801131;29;20082;-67
2022/06/08 00:14:12;;;;;;;8.88;6.60;;;9.60;99.90;;;;;;4805532;29;20051;-67
2022/06/08 00:16:38;;;;;;;7.65;6.35;;;9.70;99.90;;;;;;4802932;29;20058;-68
2022/06/08 00:19:03;;;;;;;8.65;5.90;;;9.70;99.90;;;;;;4803617;29;20051;-68
2022/06/08 00:21:29;;;;;;;9.23;6.10;;;9.60;99.90;;;;;;4789124;29;20074;-68
2022/06/08 00:23:55;;;;;;;8.43;5.95;;;9.60;99.90;;;;;;4805329;29;20062;-68
2022/06/08 00:26:22;;;;;;;7.97;6.22;;;9.50;99.90;;;;;;4804823;29;20053;-69
2022/06/08 00:28:48;;;;;;;8.23;6.20;;;9.50;99.90;;;;;;4787480;29;20062;-67
2022/06/08 00:31:13;;;;;;;10.68;6.45;;;9.60;99.90;;;;;;4788871;29;20055;-67
2022/06/08 00:33:39;;;;;;;7.63;6.32;;;9.50;99.90;;;;;;4788437;29;20087;-67
2022/06/08 00:36:05;;;;;;;7.10;6.00;;;9.50;99.90;;;;;;4805169;29;20057;-66
2022/06/08 00:38:31;;;;;;;8.68;5.88;;;9.50;99.90;;;;;;4805304;29;20059;-68
2022/06/08 00:41:02;;;;;;;7.30;6.15;;;9.50;99.90;;;;;;4788519;29;20075;-68
2022/06/08 00:43:28;;;;;;;7.88;6.20;;;9.50;99.90;;;;;;4787635;29;20082;-68
2022/06/08 00:45:55;;;;;;;8.05;6.57;;;9.50;99.90;;;;;;4803764;29;20086;-68
2022/06/08 00:48:26;;;;;;;7.35;6.22;;;9.50;99.90;;;;;;4802897;29;20058;-66
2022/06/08 00:50:54;;;;;;;8.48;6.28;;;9.40;99.90;;;;;;4805122;29;20073;-68
2022/06/08 00:53:42;;;;;;;7.30;5.70;;;9.50;99.90;;;;;;4805609;29;20134;-67
2022/06/08 00:56:12;;;;;;;8.68;6.13;;;9.40;99.90;;;;;;4791108;29;20059;-67
2022/06/08 00:58:38;;;;;;;7.75;6.57;;;9.40;99.90;;;;;;4807690;29;20090;-68
2022/06/08 01:01:04;;;;;;;6.45;5.10;;;9.40;99.90;;;;;;4791493;29;20568;-68
2022/06/08 01:03:30;;;;;;;7.75;6.25;;;9.40;99.90;;;;;;4791529;29;20054;-67
2022/06/08 01:06:13;;;;;;;6.97;6.25;;;9.40;99.90;;;;;;4791504;29;20047;-67
2022/06/08 01:08:43;;;;;;;8.85;7.30;;;9.50;99.90;;;;;;4791976;29;20059;-68
2022/06/08 01:11:22;;;;;;;8.18;6.38;;;9.50;99.90;;;;;;4788260;29;20093;-68
2022/06/08 01:13:48;;;;;;;10.48;6.18;;;9.50;99.90;;;;;;4806082;29;20447;-67
2022/06/08 01:16:14;;;;;;;7.95;5.70;;;9.50;99.90;;;;;;4791325;29;20134;-68
2022/06/08 01:18:40;;;;;;;8.65;5.80;;;9.60;99.90;;;;;;4788760;29;20047;-68
2022/06/08 01:21:18;;;;;;;6.97;6.20;;;9.60;99.90;;;;;;4806279;29;20099;-68
2022/06/08 01:23:46;;;;;;;8.98;6.00;;;9.60;99.90;;;;;;4807917;29;20139;-67
2022/06/08 01:26:43;;;;;;;11.82;7.90;;;9.70;99.90;;;;;;4805844;29;20130;-68
2022/06/08 01:29:08;;;;;;;9.38;6.90;;;9.80;99.90;;;;;;4802630;29;20066;-68
2022/06/08 01:31:53;;;;;;;12.18;6.78;;;9.80;99.90;;;;;;4807424;29;20059;-68
2022/06/08 01:34:39;;;;;;;8.00;7.22;;;9.80;99.90;;;;;;4807393;29;20050;-68
2022/06/08 01:37:17;;;;;;;10.77;7.28;;;9.80;99.90;;;;;;4791325;29;20468;-66
2022/06/08 01:40:16;;;;;;;8.52;7.22;;;9.80;99.90;;;;;;4789915;29;20063;-67
2022/06/08 01:42:59;;;;;;;7.72;6.72;;;9.80;99.90;;;;;;4790367;29;20535;-67
2022/06/08 01:45:48;;;;;;;10.52;7.03;;;9.80;99.90;;;;;;4807633;29;20198;-67
2022/06/08 01:48:22;;;;;;;11.77;7.32;;;9.90;99.90;;;;;;4807234;29;20082;-68
2022/06/08 01:51:15;;;;;;;10.65;7.50;;;9.90;99.90;;;;;;4788993;29;20055;-65
2022/06/08 01:54:05;;;;;;;13.52;8.43;;;10.00;99.90;;;;;;4805259;29;20523;-68
2022/06/08 01:56:57;;;;;;;12.98;7.57;;;10.00;99.90;;;;;;4790200;29;20057;-68
2022/06/08 01:59:37;;;;;;;10.73;7.68;;;10.10;99.90;;;;;;4807702;29;20061;-68
2022/06/08 02:02:17;;;;;;;13.52;9.05;;;10.20;99.90;;;;;;4806771;29;20057;-66
2022/06/08 02:05:10;;;;;;;10.80;7.63;;;10.20;99.90;;;;;;4788523;29;20055;-67
2022/06/08 02:07:41;;;;;;;10.30;8.43;;;10.30;99.90;;;;;;4789074;29;20065;-68
2022/06/08 02:10:22;;;;;;;11.43;8.77;;;10.30;99.90;;;;;;4805843;29;20492;-68
2022/06/08 02:12:53;;;;;;;12.48;8.85;;;10.40;99.90;;;;;;4803520;29;20062;-67
2022/06/08 02:15:34;;;;;;;11.05;9.10;;;10.40;99.90;;;;;;4790381;29;20055;-67
2022/06/08 02:18:07;;;;;;;12.43;10.20;;;10.50;99.90;;;;;;4805043;29;20437;-67
2022/06/08 02:21:06;;;;;;;11.82;8.93;;;10.60;99.90;;;;;;4806085;29;20085;-68
2022/06/08 02:23:53;;;;;;;13.05;8.63;;;10.60;99.90;;;;;;4797338;29;20145;-67
2022/06/08 02:26:25;;;;;;;12.30;9.23;;;10.60;99.90;;;;;;4790186;29;20130;-67
2022/06/08 02:28:57;;;;;;;14.00;9.25;;;10.70;99.90;;;;;;4790727;29;20065;-68
2022/06/08 02:31:30;;;;;;;13.98;9.50;;;10.80;99.90;;;;;;4788774;29;20476;-66
2022/06/08 02:36:49;;;;;;;11.82;8.73;;;10.80;99.90;;;;;;4790431;29;20055;-68
2022/06/08 02:39:22;;;;;;;11.68;9.30;;;10.80;99.90;;;;;;4806612;29;20047;-69
2022/06/08 02:41:51;;;;;;;11.98;9.88;;;10.90;99.90;;;;;;4805108;29;20082;-67
2022/06/08 02:44:23;;;;;;;13.57;10.20;;;10.90;99.90;;;;;;4788392;29;20473;-68
2022/06/08 02:47:16;;;;;;;14.90;10.95;;;10.90;99.90;;;;;;4789794;29;20521;-68
2022/06/08 02:49:42;;;;;;;13.38;9.90;;;11.00;99.90;;;;;;4788910;29;20069;-66
2022/06/08 02:52:23;;;;;;;12.93;9.63;;;11.00;99.90;;;;;;4789130;29;20050;-67
2022/06/08 02:54:50;;;;;;;16.35;11.07;;;11.10;99.90;;;;;;4790047;29;20051;-69
2022/06/08 02:57:48;;;;;;;14.80;10.77;;;11.10;99.90;;;;;;4785544;29;20103;-68
2022/06/08 03:00:19;;;;;;;16.25;11.38;;;11.10;99.90;;;;;;4790298;29;20050;-68
2022/06/08 03:02:52;;;;;;;17.50;10.98;;;11.20;99.90;;;;;;4788759;29;20133;-69
2022/06/08 03:05:30;;;;;;;12.38;10.27;;;11.20;99.90;;;;;;4789340;29;20465;-68
2022/06/08 03:08:10;;;;;;;15.95;11.45;;;11.10;99.90;;;;;;4806248;29;20073;-68
2022/06/08 03:10:40;;;;;;;14.95;10.82;;;11.20;99.90;;;;;;4804969;29;20069;-68
2022/06/08 03:13:16;;;;;;;16.90;11.15;;;11.20;99.90;;;;;;4786176;29;20051;-69
2022/06/08 03:15:48;;;;;;;15.52;11.02;;;11.20;99.90;;;;;;4804404;29;20066;-69
2022/06/08 03:18:13;;;;;;;20.73;11.68;;;11.30;99.90;;;;;;4805175;29;20066;-69
2022/06/08 03:20:39;;;;;;;17.38;11.50;;;11.30;99.90;;;;;;4805919;29;20054;-66
2022/06/08 03:23:05;;;;;;;16.33;11.73;;;11.30;99.90;;;;;;4788714;29;20337;-67
2022/06/08 03:25:31;;;;;;;19.33;12.55;;;11.30;99.90;;;;;;4805931;29;20107;-68
2022/06/08 03:27:57;;;;;;;16.83;11.65;;;11.30;99.90;;;;;;4789662;29;20050;-68
2022/06/08 03:30:23;;;;;;;16.10;11.45;;;11.40;99.90;;;;;;4788563;29;20058;-68
2022/06/08 03:32:49;;;;;;;15.40;11.60;;;11.40;99.90;;;;;;4788987;29;20058;-69
2022/06/08 03:35:15;;;;;;;14.88;10.80;;;11.40;99.90;;;;;;4773045;29;20180;-68
2022/06/08 03:37:41;;;;;;;20.40;13.15;;;11.40;99.90;;;;;;4804778;29;20102;-68
2022/06/08 03:40:08;;;;;;;18.08;11.98;;;11.50;99.90;;;;;;4789635;29;20047;-67
2022/06/08 03:42:34;;;;;;;18.42;12.95;;;11.50;99.90;;;;;;4788737;29;20092;-69
2022/06/08 03:45:00;;;;;;;14.93;11.55;;;11.60;99.90;;;;;;4789784;29;20074;-69
2022/06/08 03:47:29;;;;;;;17.25;12.38;;;11.60;99.90;;;;;;4805524;29;20055;-66
2022/06/08 03:49:57;;;;;;;16.63;11.75;;;11.70;99.90;;;;;;4803886;29;20062;-68
2022/06/08 03:52:26;;;;;;;15.00;12.00;;;11.70;99.90;;;;;;4805959;29;20126;-69
2022/06/08 03:54:58;;;;;;;14.73;11.55;;;11.80;99.90;;;;;;4805683;29;20133;-70
2022/06/08 03:57:24;;;;;;;17.60;12.05;;;11.80;99.90;;;;;;4805653;29;20059;-68
2022/06/08 03:59:51;;;;;;;16.00;11.45;;;11.90;99.90;;;;;;4805710;29;20063;-69
2022/06/08 04:02:17;;;;;;;14.40;11.30;;;11.90;99.90;;;;;;4803474;29;20042;-68
2022/06/08 04:04:43;;;;;;;16.73;11.00;;;11.90;99.90;;;;;;4788971;29;20439;-67
2022/06/08 04:07:10;;;;;;;17.00;11.13;;;12.00;99.90;;;;;;4788869;29;20129;-68
2022/06/08 04:09:36;;;;;;;16.17;12.43;;;12.10;99.90;;;;;;4803418;29;20469;-67
2022/06/08 04:12:03;;;;;;;15.88;10.77;;;12.10;99.90;;;;;;4786845;29;20434;-67
2022/06/08 04:14:29;;;;;;;18.30;13.23;;;12.20;99.90;;;;;;4803749;29;20488;-69
2022/06/08 04:16:54;;;;;;;15.13;11.35;;;12.30;99.90;;;;;;4803943;29;20054;-69
2022/06/08 04:19:20;;;;;;;17.73;13.07;;;12.30;99.90;;;;;;4804455;29;20229;-71
2022/06/08 04:21:47;;;;;;;18.83;12.73;;;12.40;99.90;;;;;;4804680;29;20089;-67
2022/06/08 04:24:15;;;;;;;18.45;14.02;;;12.40;99.90;;;;;;4805915;29;20457;-66
2022/06/08 04:26:41;;;;;;;16.92;12.95;;;12.50;99.90;;;;;;4789032;29;20069;-68
2022/06/08 04:29:08;;;;;;;19.17;13.88;;;12.50;99.90;;;;;;4789424;29;20059;-68
2022/06/08 04:31:35;;;;;;;17.58;13.27;;;12.60;99.90;;;;;;4791083;29;20058;-67
2022/06/08 04:34:03;;;;;;;16.60;12.88;;;12.60;99.90;;;;;;4808979;29;20548;-69
2022/06/08 04:36:31;;;;;;;18.77;13.38;;;12.80;99.90;;;;;;4792176;29;20162;-68
2022/06/08 04:38:57;;;;;;;18.55;13.73;;;12.70;99.90;;;;;;4808661;29;20047;-69
2022/06/08 04:41:24;;;;;;;19.42;13.32;;;12.70;99.90;;;;;;4805243;29;20073;-68
2022/06/08 04:43:50;;;;;;;20.75;13.77;;;12.80;99.90;;;;;;4807719;29;20396;-70
2022/06/08 04:46:17;;;;;;;20.00;14.10;;;12.80;99.90;;;;;;4808313;29;20050;-69
2022/06/08 04:48:44;;;;;;;20.00;14.60;;;12.80;99.90;;;;;;4808387;29;20464;-68
2022/06/08 04:51:11;;;;;;;19.67;14.23;;;12.90;99.90;;;;;;4808417;29;20130;-69
2022/06/08 04:53:38;;;;;;;20.85;15.13;;;12.90;99.90;;;;;;4792247;29;20055;-67
2022/06/08 04:56:04;;;;;;;22.38;15.50;;;13.00;99.90;;;;;;4807471;29;20397;-69
2022/06/08 04:58:30;;;;;;;22.30;15.13;;;13.00;99.90;;;;;;4805579;29;20062;-69
2022/06/08 05:00:55;;;;;;;21.35;15.32;;;13.00;99.90;;;;;;4790240;29;20054;-70
2022/06/08 05:03:21;;;;;;;20.77;14.95;;;13.10;99.90;;;;;;4789185;29;20149;-68
2022/06/08 05:05:47;;;;;;;20.98;13.52;;;13.20;99.90;;;;;;4802461;29;20137;-70
2022/06/08 05:08:15;;;;;;;19.77;15.10;;;13.20;99.90;;;;;;4793338;29;20485;-69
2022/06/08 05:10:40;;;;;;;21.00;15.88;;;13.20;99.90;;;;;;4789808;29;20086;-71
2022/06/08 05:13:07;;;;;;;21.45;15.55;;;13.00;99.90;;;;;;4808036;29;20088;-67
2022/06/08 05:15:36;;;;;;;19.90;15.00;;;13.30;99.90;;;;;;4808169;29;20051;-67
2022/06/08 05:18:03;;;;;;;18.52;14.45;;;13.40;99.90;;;;;;4788142;29;20061;-69
2022/06/08 05:20:30;;;;;;;21.00;16.17;;;13.50;99.90;;;;;;4786385;29;20059;-69
2022/06/08 05:22:57;;;;;;;19.33;15.02;;;13.60;99.90;;;;;;4787991;29;20054;-69
2022/06/08 05:25:30;;;;;;;23.55;15.77;;;13.70;99.90;;;;;;4802226;29;20082;-68
2022/06/08 05:27:57;;;;;;;18.83;15.38;;;13.80;99.90;;;;;;4799743;29;20396;-68
2022/06/08 05:30:25;;;;;;;21.80;16.17;;;13.90;99.90;;;;;;4801495;29;20046;-69
2022/06/08 05:32:52;;;;;;;19.15;15.88;;;14.10;99.90;;;;;;4803596;29;20050;-68
2022/06/08 05:35:19;;;;;;;20.15;16.52;;;14.20;99.90;;;;;;4785328;29;20111;-68
2022/06/08 05:37:46;;;;;;;22.52;16.65;;;14.40;99.90;;;;;;4806234;29;20051;-70
2022/06/08 05:40:12;;;;;;;20.70;15.85;;;14.40;99.90;;;;;;4771025;29;20062;-67
2022/06/08 05:42:39;;;;;;;24.35;16.52;;;14.40;99.90;;;;;;4805709;29;20115;-68
2022/06/08 05:45:15;;;;;;;23.55;17.38;;;14.50;99.90;;;;;;4807333;29;20453;-70
2022/06/08 05:47:40;;;;;;;23.42;17.50;;;14.50;99.90;;;;;;4806650;29;20152;-67
2022/06/08 05:50:07;;;;;;;23.17;16.50;;;14.60;99.90;;;;;;4791349;29;20224;-71
2022/06/08 05:52:32;;;;;;;19.33;15.02;;;14.80;99.90;;;;;;4807303;29;20055;-68
2022/06/08 05:54:59;;;;;;;21.30;15.75;;;15.00;99.90;;;;;;4807160;29;20057;-69
2022/06/08 05:57:24;;;;;;;21.13;15.80;;;15.50;99.90;;;;;;4806630;29;20055;-70
2022/06/08 05:59:50;;;;;;;20.85;15.27;;;16.00;99.90;;;;;;4804233;29;20492;-67
2022/06/08 06:02:16;;;;;;;19.83;14.80;;;16.10;99.90;;;;;;4805346;29;20062;-68
2022/06/08 06:04:43;;;;;;;19.17;14.68;;;16.10;99.90;;;;;;4806263;29;20047;-69
2022/06/08 06:07:11;;;;;;;19.73;14.15;;;16.60;99.90;;;;;;4790782;29;20093;-69
2022/06/08 06:09:37;;;;;;;16.75;13.10;;;16.90;99.90;;;;;;4775887;29;20059;-69
2022/06/08 06:12:03;;;;;;;16.73;14.20;;;16.90;99.90;;;;;;4802323;29;20078;-68
2022/06/08 06:14:29;;;;;;;17.25;12.30;;;16.80;99.90;;;;;;4805009;29;20053;-68
2022/06/08 06:16:54;;;;;;;20.25;13.30;;;16.70;99.90;;;;;;4806508;29;20051;-69
2022/06/08 06:19:20;;;;;;;16.67;12.70;;;16.60;99.90;;;;;;4775571;29;20074;-70
2022/06/08 06:21:46;;;;;;;13.23;11.43;;;16.50;99.90;;;;;;4791416;29;20042;-69
2022/06/08 06:24:12;;;;;;;12.95;11.55;;;16.60;99.90;;;;;;4789750;29;20065;-67
2022/06/08 06:26:37;;;;;;;15.25;12.05;;;16.80;99.90;;;;;;4806409;29;20047;-66
2022/06/08 06:29:03;;;;;;;12.85;11.50;;;17.10;99.90;;;;;;4806824;29;20126;-67
2022/06/08 06:31:59;;;;;;;17.80;11.80;;;17.60;99.90;;;;;;4787320;29;20441;-67
2022/06/08 06:34:27;;;;;;;15.98;12.15;;;18.30;99.90;;;;;;4807000;29;20118;-69
2022/06/08 06:36:53;;;;;;;14.40;11.80;;;19.30;99.90;;;;;;4790472;29;20046;-69
2022/06/08 06:39:20;;;;;;;16.50;12.23;;;19.80;99.90;;;;;;4805274;29;20469;-66
2022/06/08 06:41:47;;;;;;;14.30;12.20;;;19.50;99.90;;;;;;4806681;29;20058;-66
2022/06/08 06:44:13;;;;;;;14.52;10.68;;;19.20;99.90;;;;;;4789220;29;20089;-67
2022/06/08 06:46:39;;;;;;;12.68;11.35;;;18.90;99.90;;;;;;4786800;29;20055;-67
2022/06/08 06:49:04;;;;;;;13.98;11.40;;;18.80;99.90;;;;;;4806644;29;20073;-67
2022/06/08 06:51:30;;;;;;;14.48;11.60;;;18.60;99.90;;;;;;4805980;29;20050;-68
2022/06/08 06:53:56;;;;;;;11.70;10.50;;;18.40;99.90;;;;;;4790049;29;20047;-67
2022/06/08 06:56:22;;;;;;;11.57;10.38;;;18.40;99.90;;;;;;4789660;29;20333;-69
2022/06/08 06:58:48;;;;;;;11.65;9.60;;;18.40;99.90;;;;;;4775558;29;20061;-67
2022/06/08 07:01:15;;;;;;;10.68;8.80;;;18.50;99.90;;;;;;4805465;29;20437;-68
2022/06/08 07:03:42;;;;;;;9.35;8.35;;;18.60;99.90;;;;;;4806367;29;20138;-67
2022/06/08 07:06:08;;;;;;;11.13;8.52;;;18.70;99.90;;;;;;4805487;29;20614;-67
2022/06/08 07:08:33;;;;;;;11.88;8.13;;;18.80;99.90;;;;;;4789752;29;20117;-66
2022/06/08 07:13:43;;;;;;;7.55;6.75;;;19.10;99.90;;;;;;4789563;29;20055;-68
2022/06/08 07:16:08;;;;;;;7.40;6.60;;;19.30;99.90;;;;;;4773328;29;20054;-66
2022/06/08 07:18:34;;;;;;;6.47;5.85;;;19.30;99.90;;;;;;4805332;29;20083;-67
2022/06/08 07:21:00;;;;;;;7.05;6.35;;;19.40;99.90;;;;;;4789684;29;20058;-66
2022/06/08 07:23:26;;;;;;;6.88;6.18;;;19.20;99.90;;;;;;4805746;29;20404;-67
2022/06/08 07:25:51;;;;;;;7.38;5.85;;;19.20;99.90;;;;;;4805826;29;20142;-66
2022/06/08 07:28:17;;;;;;;7.90;6.43;;;19.20;99.90;;;;;;4789758;29;20061;-66
2022/06/08 07:30:43;;;;;;;8.50;5.85;;;19.20;99.90;;;;;;4789403;29;20051;-67
2022/06/08 07:33:08;;;;;;;8.52;6.40;;;19.20;99.90;;;;;;4788660;29;20135;-66
2022/06/08 07:35:34;;;;;;;6.57;5.68;;;19.20;99.90;;;;;;4805530;29;20070;-67
2022/06/08 07:37:59;;;;;;;6.00;5.40;;;19.40;99.90;;;;;;4804921;29;20050;-66
2022/06/08 07:40:25;;;;;;;6.55;5.85;;;19.30;99.90;;;;;;4788812;29;20100;-67
2022/06/08 07:42:51;;;;;;;6.32;4.90;;;19.40;99.90;;;;;;4802780;29;20059;-66
2022/06/08 07:45:16;;;;;;;5.22;4.40;;;19.50;99.90;;;;;;4788863;29;20050;-68
2022/06/08 07:50:28;;;;;;;4.35;3.55;;;19.70;99.90;;;;;;4788590;29;20083;-66
2022/06/08 07:52:55;;;;;;;5.15;3.72;;;19.80;99.90;;;;;;4804772;29;20378;-69
2022/06/08 07:55:21;;;;;;;5.45;3.88;;;20.00;99.90;;;;;;4788691;29;20047;-67
2022/06/08 07:57:47;;;;;;;4.82;3.97;;;20.00;99.90;;;;;;4805539;29;20062;-68
2022/06/08 08:00:15;;;;;;;4.88;4.10;;;20.10;99.90;;;;;;4774472;29;20047;-68
2022/06/08 08:02:41;;;;;;;4.53;4.00;;;20.10;99.90;;;;;;4805835;29;20046;-69
2022/06/08 08:05:09;;;;;;;5.90;4.68;;;20.20;99.90;;;;;;4792001;29;20059;-69
2022/06/08 08:07:36;;;;;;;7.32;3.72;;;20.20;99.90;;;;;;4808335;29;20476;-68
2022/06/08 08:10:04;;;;;;;5.30;3.95;;;20.40;99.90;;;;;;4790717;29;20413;-67
2022/06/08 08:12:30;;;;;;;6.43;4.30;;;20.50;99.90;;;;;;4777351;29;20111;-68
2022/06/08 08:14:55;;;;;;;6.38;3.92;;;20.50;99.90;;;;;;4792822;29;20051;-69
2022/06/08 08:17:21;;;;;;;4.30;3.50;;;20.50;99.90;;;;;;4792024;29;20082;-68
2022/06/08 08:19:46;;;;;;;4.95;3.88;;;20.60;99.90;;;;;;4791773;29;20062;-68
2022/06/08 08:22:14;;;;;;;6.15;4.38;;;20.60;99.90;;;;;;4791913;29;20042;-68
2022/06/08 08:24:40;;;;;;;4.47;3.63;;;20.60;99.90;;;;;;4792067;29;20053;-66
2022/06/08 08:27:06;;;;;;;6.35;3.90;;;20.70;99.90;;;;;;4808300;29;20039;-67
2022/06/08 08:29:31;;;;;;;4.28;3.88;;;20.80;99.90;;;;;;4808318;29;20565;-68
2022/06/08 08:31:57;;;;;;;8.20;3.90;;;20.90;99.90;;;;;;4791673;29;20074;-68
2022/06/08 08:34:22;;;;;;;6.40;4.30;;;20.90;99.90;;;;;;4807277;29;20063;-67
2022/06/08 08:36:48;;;;;;;7.88;5.40;;;21.00;99.90;;;;;;4791706;29;20418;-69
2022/06/08 08:39:15;;;;;;;4.35;3.92;;;21.10;99.90;;;;;;4791317;29;20099;-67
2022/06/08 08:44:35;;;;;;;6.40;4.85;;;21.00;99.90;;;;;;4808635;29;20050;-68
2022/06/08 08:47:04;;;;;;;6.93;4.97;;;21.10;99.90;;;;;;4791508;29;20094;-68
2022/06/08 08:49:32;;;;;;;6.05;5.22;;;21.20;99.90;;;;;;4808812;29;20101;-68
2022/06/08 08:52:00;;;;;;;8.63;5.82;;;21.20;99.90;;;;;;4808339;29;20457;-67
2022/06/08 08:54:36;;;;;;;8.02;5.18;;;21.30;99.90;;;;;;4790529;29;20058;-67
2022/06/08 08:57:27;;;;;;;7.07;5.30;;;21.50;99.90;;;;;;4798906;29;20050;-68
2022/06/08 08:59:53;;;;;;;5.95;5.32;;;21.60;99.90;;;;;;4791759;29;20051;-67
2022/06/08 09:05:17;;;;;;;4.93;4.32;;;21.50;99.90;;;;;;4782287;29;20404;-67
2022/06/08 09:07:43;;;;;;;6.57;4.18;;;21.40;99.90;;;;;;4805768;29;20115;-69
2022/06/08 09:10:17;;;;;;;5.22;4.72;;;21.20;99.90;;;;;;4807879;29;20063;-66
2022/06/08 09:12:44;;;;;;;23.77;10.23;;;21.10;99.90;;;;;;4808169;29;20456;-66
2022/06/08 09:15:12;;;;;;;50.67;19.77;;;21.10;99.90;;;;;;4805713;29;20113;-68
2022/06/08 09:17:48;;;;;;;7.95;5.38;;;21.10;99.90;;;;;;4790614;29;20408;-67
2022/06/08 09:20:31;;;;;;;5.30;4.80;;;21.20;99.90;;;;;;4807742;29;20484;-67
2022/06/08 09:22:57;;;;;;;;;;;21.20;99.90;;;;;;4807972;29;20055;-68
2022/06/08 09:25:30;;;;;;;5.82;4.03;;;21.10;99.90;;;;;;4807981;29;19970;-66
2022/06/08 09:27:58;;;;;;;5.82;3.70;;;21.10;99.90;;;;;;4789648;29;20081;-67
2022/06/08 09:30:27;;;;;;;6.18;4.80;;;21.00;99.90;;;;;;4805465;29;20072;-66
2022/06/08 09:32:55;;;;;;;4.57;4.13;;;21.00;99.90;;;;;;4804821;29;20553;-67
2022/06/08 09:35:26;;;;;;;6.70;4.45;;;21.00;99.90;;;;;;4805583;29;20473;-67
2022/06/08 09:37:55;;;;;;;7.20;4.57;;;21.10;99.90;;;;;;4805778;29;20050;-68
2022/06/08 09:40:36;;;;;;;9.45;4.45;;;21.30;99.90;;;;;;4786902;29;20061;-67
2022/06/08 09:43:43;;;;;;;5.10;4.10;;;21.00;99.90;;;;;;4807614;29;20132;-67
2022/06/08 09:53:01;;;;;;;5.20;4.03;;;21.00;99.90;;;;;;4769818;29;20043;-66
2022/06/08 09:55:45;;;;;;;4.80;3.75;;;21.00;99.90;;;;;;4788644;29;20055;-65
2022/06/08 09:58:36;;;;;;;5.05;3.30;;;20.90;99.90;;;;;;4804604;29;20090;-65
2022/06/08 10:01:17;;;;;;;5.38;3.22;;;20.90;99.90;;;;;;4806666;29;20071;-66
2022/06/08 10:04:13;;;;;;;6.32;3.22;;;20.90;99.90;;;;;;4790878;29;20062;-67
2022/06/08 10:07:01;;;;;;;5.00;3.83;;;21.00;99.90;;;;;;4799959;29;20065;-67
2022/06/08 10:09:49;;;;;;;3.92;3.53;;;21.20;99.90;;;;;;4805354;29;20065;-68
2022/06/08 10:12:39;;;;;;;4.90;3.00;;;21.10;99.90;;;;;;4803620;29;20388;-68
2022/06/08 10:15:21;;;;;;;3.30;2.50;;;21.40;99.90;;;;;;4807144;29;20432;-67
2022/06/08 10:18:00;;;;;;;3.65;1.90;;;21.60;99.90;;;;;;4787592;29;20122;-66
2022/06/08 10:20:37;;;;;;;2.30;1.70;;;21.90;99.90;;;;;;4806702;29;20086;-68
2022/06/08 10:23:26;;;;;;;3.35;2.20;;;22.00;99.90;;;;;;4786445;29;20179;-67
2022/06/08 10:26:03;;;;;;;3.00;2.33;;;22.00;99.90;;;;;;4783362;29;20205;-65
2022/06/08 10:28:38;;;;;;;5.03;3.25;;;22.00;99.90;;;;;;4790797;29;20055;-67
2022/06/08 10:31:40;;;;;;;3.25;2.55;;;22.10;99.90;;;;;;4790052;29;20468;-68
2022/06/08 10:34:33;;;;;;;4.90;3.20;;;22.10;99.90;;;;;;4786097;29;20113;-66
2022/06/08 10:37:15;;;;;;;5.13;2.97;;;22.30;99.90;;;;;;4806754;29;20082;-66
2022/06/08 10:39:43;;;;;;;3.47;2.55;;;22.50;99.90;;;;;;4774828;29;20135;-66
2022/06/08 10:44:58;;;;;;;3.50;2.88;;;23.10;99.90;;;;;;4789894;29;20485;-67
2022/06/08 10:47:37;;;;;;;4.88;3.05;;;23.30;99.90;;;;;;4803354;29;20050;-67
2022/06/08 10:50:03;;;;;;;5.07;3.70;;;23.20;99.90;;;;;;4805451;29;20046;-68
2022/06/08 10:52:49;;;;;;;7.55;4.38;;;23.10;99.90;;;;;;4790234;29;20051;-67
2022/06/08 10:55:15;;;;;;;5.32;4.32;;;23.10;99.90;;;;;;4806371;29;20097;-67
2022/06/08 10:57:49;;;;;;;5.32;4.10;;;22.90;99.90;;;;;;4805239;29;20090;-66
2022/06/08 11:00:22;;;;;;;4.72;3.95;;;22.90;99.90;;;;;;4804659;29;20101;-67
2022/06/08 11:03:01;;;;;;;5.28;4.20;;;23.00;99.90;;;;;;4805639;29;20054;-66
2022/06/08 11:05:39;;;;;;;6.53;4.10;;;23.00;99.90;;;;;;4790280;29;20055;-68
2022/06/08 11:08:08;;;;;;;6.00;3.58;;;22.90;99.90;;;;;;4806001;29;20046;-67
2022/06/08 11:10:53;;;;;;;4.43;3.85;;;23.00;99.90;;;;;;4789421;29;20130;-65
2022/06/08 11:13:24;;;;;;;5.85;3.38;;;22.90;99.90;;;;;;4804225;29;20070;-67
2022/06/08 11:15:59;;;;;;;4.50;3.63;;;23.00;99.90;;;;;;4805041;29;20392;-67
2022/06/08 11:18:34;;;;;;;4.55;3.47;;;23.00;99.90;;;;;;4806264;29;20051;-67
2022/06/08 11:21:14;;;;;;;3.50;2.80;;;22.90;99.90;;;;;;4804099;29;20051;-67
2022/06/08 11:24:04;;;;;;;4.72;3.55;;;22.90;99.90;;;;;;4774489;29;20077;-68
2022/06/08 11:26:36;;;;;;;6.03;3.22;;;22.80;99.90;;;;;;4800966;29;20050;-67
2022/06/08 11:29:17;;;;;;;3.92;3.40;;;22.80;99.90;;;;;;4805471;29;20445;-66
2022/06/08 11:31:46;;;;;;;4.10;3.67;;;22.60;99.90;;;;;;4789458;29;20077;-66
2022/06/08 11:34:33;;;;;;;8.52;3.53;;;22.40;99.90;;;;;;4789699;29;20043;-67
2022/06/08 11:37:34;;;;;;;4.45;3.50;;;22.10;99.90;;;;;;4787812;29;20053;-67
2022/06/08 11:40:21;;;;;;;4.85;3.40;;;21.80;99.90;;;;;;4788065;29;20050;-66
2022/06/08 11:42:53;;;;;;;6.15;3.53;;;21.50;99.90;;;;;;4789133;29;20046;-67
2022/06/08 11:45:39;;;;;;;4.38;3.70;;;21.20;99.90;;;;;;4805593;29;20503;-68
2022/06/08 11:48:16;;;;;;;4.32;3.30;;;20.90;99.90;;;;;;4788648;29;20109;-66
2022/06/08 11:50:47;;;;;;;3.78;3.38;;;20.80;99.90;;;;;;4805568;29;20485;-67
2022/06/08 11:53:35;;;;;;;4.28;3.13;;;20.60;99.90;;;;;;4789285;29;20075;-66
2022/06/08 11:56:24;;;;;;;4.60;3.30;;;20.60;99.90;;;;;;4779942;29;20138;-68
2022/06/08 11:58:56;;;;;;;3.45;2.20;;;20.70;99.90;;;;;;4789582;29;20065;-66
2022/06/08 12:01:31;;;;;;;2.35;1.40;;;20.70;99.90;;;;;;4805077;29;20051;-65
2022/06/08 12:04:06;;;;;;;3.42;1.00;;;20.50;99.90;;;;;;4787960;29;20548;-66
2022/06/08 12:06:35;;;;;;;2.85;1.23;;;20.40;99.90;;;;;;4804928;29;20119;-66
2022/06/08 12:09:06;;;;;;;5.28;0.90;;;20.30;99.90;;;;;;4788432;29;20074;-68
2022/06/08 12:11:38;;;;;;;2.70;1.30;;;20.20;99.90;;;;;;4789297;29;20092;-68
2022/06/08 12:14:26;;;;;;;1.90;0.88;;;20.10;99.90;;;;;;4805008;29;20051;-65
2022/06/08 12:17:03;;;;;;;3.67;1.25;;;19.80;99.90;;;;;;4805095;29;20066;-68
2022/06/08 12:19:38;;;;;;;3.70;1.20;;;19.50;99.90;;;;;;4789482;29;20389;-66
2022/06/08 12:22:25;;;;;;;5.15;1.63;;;19.20;99.90;;;;;;4804389;29;20099;-67
2022/06/08 12:25:25;;;;;;;7.25;2.10;;;18.70;99.90;;;;;;4787444;29;20062;-68
2022/06/08 12:28:00;;;;;;;7.85;1.92;;;18.30;99.90;;;;;;4784621;29;20098;-69
2022/06/08 12:30:34;;;;;;;5.07;2.20;;;17.80;99.90;;;;;;4803214;29;20051;-66
2022/06/08 12:33:26;;;;;;;6.15;1.98;;;17.60;99.90;;;;;;4786246;29;20382;-66
2022/06/08 12:35:54;;;;;;;4.78;2.00;;;17.40;99.90;;;;;;4788282;29;20058;-68
2022/06/08 12:38:29;;;;;;;4.47;1.52;;;17.20;99.90;;;;;;4804894;29;20051;-66
2022/06/08 12:41:16;;;;;;;3.33;2.03;;;17.20;99.90;;;;;;4805002;29;20126;-67
2022/06/08 12:44:04;;;;;;;4.40;2.67;;;17.10;99.90;;;;;;4783594;29;20580;-69
2022/06/08 12:46:35;;;;;;;6.63;2.78;;;17.10;99.90;;;;;;4801458;29;20066;-66
2022/06/08 12:49:15;;;;;;;6.20;2.63;;;;;;;;;;4806294;29;20137;-68
2022/06/08 12:51:53;;;;;;;7.03;3.22;;;17.30;99.90;;;;;;4807297;29;20107;-66
2022/06/08 12:54:23;;;;;;;6.07;3.50;;;17.30;99.90;;;;;;4791328;29;20138;-68
2022/06/08 12:56:56;;;;;;;4.30;3.65;;;17.40;99.90;;;;;;4790660;29;20066;-68
2022/06/08 12:59:23;;;;;;;6.13;4.43;;;17.60;99.90;;;;;;4808367;29;20113;-66
2022/06/08 13:01:48;;;;;;;7.07;4.70;;;17.70;99.90;;;;;;4806532;29;20046;-65
2022/06/08 13:04:20;;;;;;;7.57;5.07;;;17.90;99.90;;;;;;4792511;29;20046;-66
2022/06/08 13:06:46;;;;;;;5.40;4.90;;;18.10;99.90;;;;;;4807388;29;20047;-67
2022/06/08 13:09:15;;;;;;;11.30;5.55;;;18.20;99.90;;;;;;4806387;29;20058;-67
2022/06/08 13:11:43;;;;;;;8.85;5.57;;;18.40;99.90;;;;;;4774897;29;20043;-67
2022/06/08 13:14:16;;;;;;;6.63;5.00;;;18.50;99.90;;;;;;4789250;29;20050;-67
2022/06/08 13:16:44;;;;;;;8.75;5.20;;;18.50;99.90;;;;;;4791053;29;20063;-66
2022/06/08 13:19:13;;;;;;;7.82;5.35;;;18.60;99.90;;;;;;4804204;29;20059;-67
2022/06/08 13:21:40;;;;;;;7.72;5.20;;;18.60;99.90;;;;;;4807117;29;20054;-68
2022/06/08 13:24:06;;;;;;;5.95;5.00;;;18.70;99.90;;;;;;4805591;29;20055;-66
2022/06/08 13:26:34;;;;;;;5.97;5.00;;;18.80;99.90;;;;;;4805987;29;20062;-66
2022/06/08 13:29:00;;;;;;;6.45;5.25;;;18.90;99.90;;;;;;4806114;29;20508;-66